sensor_id;sensor_type;location;lat;lon;timestamp;pressure;altitude;pressure_sealevel;temperature;humidity
41684;BME280;27369;52.030;4.586;2023-02-28T00:01:21;-20807.34;;;-144.41;100.00
41684;BME280;27369;52.030;4.586;2023-02-28T00:03:46;-20807.34;;;-144.41;100.00
41684;BME280;27369;52.030;4.586;2023-02-28T00:06:12;-20807.34;;;-144.41;100.00
41684;BME280;27369;52.030;4.586;2023-02-28T00:08:37;-20807.34;;;-144.41;100.00
41684;BME280;27369;52.030;4.586;2023-02-28T00:11:03;-20807.34;;;-144.41;100.00
41684;BME280;27369;52.030;4.586;2023-02-28T00:13:29;-20807.34;;;-144.41;100.00
41684;BME280;27369;52.030;4.586;2023-02-28T00:16:07;-20807.34;;;-144.41;100.00
41684;BME280;27369;52.030;4.586;2023-02-28T00:18:33;-20807.34;;;-144.41;100.00
41684;BME280;27369;52.030;4.586;2023-02-28T00:20:58;-20807.34;;;-144.41;100.00
41684;BME280;27369;52.030;4.586;2023-02-28T00:23:24;-20807.34;;;-144.41;100.00
41684;BME280;27369;52.030;4.586;2023-02-28T00:25:49;-20807.34;;;-144.41;100.00
41684;BME280;27369;52.030;4.586;2023-02-28T00:28:15;-20807.34;;;-144.41;100.00
41684;BME280;27369;52.030;4.586;2023-02-28T00:30:40;-20807.34;;;-144.41;100.00
41684;BME280;27369;52.030;4.586;2023-02-28T00:33:05;-20807.34;;;-144.41;100.00
41684;BME280;27369;52.030;4.586;2023-02-28T00:35:31;-20807.34;;;-144.41;100.00
41684;BME280;27369;52.030;4.586;2023-02-28T00:37:56;-20807.34;;;-144.41;100.00
41684;BME280;27369;52.030;4.586;2023-02-28T00:40:21;-20807.34;;;-144.41;100.00
41684;BME280;27369;52.030;4.586;2023-02-28T00:42:46;-20807.34;;;-144.41;100.00
41684;BME280;27369;52.030;4.586;2023-02-28T00:45:12;-20807.34;;;-144.41;100.00
41684;BME280;27369;52.030;4.586;2023-02-28T00:47:37;-20807.34;;;-144.41;100.00
41684;BME280;27369;52.030;4.586;2023-02-28T00:50:02;-20807.34;;;-144.41;100.00
41684;BME280;27369;52.030;4.586;2023-02-28T00:52:28;-20807.34;;;-144.41;100.00
41684;BME280;27369;52.030;4.586;2023-02-28T00:54:53;-20807.34;;;-144.41;100.00
41684;BME280;27369;52.030;4.586;2023-02-28T00:57:18;-20807.34;;;-144.41;100.00
41684;BME280;27369;52.030;4.586;2023-02-28T00:59:44;-20807.34;;;-144.41;100.00
41684;BME280;27369;52.030;4.586;2023-02-28T01:02:09;-20807.34;;;-144.41;100.00
41684;BME280;27369;52.030;4.586;2023-02-28T01:04:34;-20807.34;;;-144.41;100.00
41684;BME280;27369;52.030;4.586;2023-02-28T01:07:00;-20807.34;;;-144.41;100.00
41684;BME280;27369;52.030;4.586;2023-02-28T01:09:25;-20807.34;;;-144.41;100.00
41684;BME280;27369;52.030;4.586;2023-02-28T01:11:51;-20807.34;;;-144.41;100.00
41684;BME280;27369;52.030;4.586;2023-02-28T01:14:16;-20807.34;;;-144.41;100.00
41684;BME280;27369;52.030;4.586;2023-02-28T01:16:42;-20807.34;;;-144.41;100.00
41684;BME280;27369;52.030;4.586;2023-02-28T01:19:07;-20807.34;;;-144.41;100.00
41684;BME280;27369;52.030;4.586;2023-02-28T01:21:32;-20807.34;;;-144.41;100.00
41684;BME280;27369;52.030;4.586;2023-02-28T01:23:59;-20807.34;;;-144.41;100.00
41684;BME280;27369;52.030;4.586;2023-02-28T01:26:25;-20807.34;;;-144.41;100.00
41684;BME280;27369;52.030;4.586;2023-02-28T01:28:51;-20807.34;;;-144.41;100.00
41684;BME280;27369;52.030;4.586;2023-02-28T01:31:16;-20807.34;;;-144.41;100.00
41684;BME280;27369;52.030;4.586;2023-02-28T01:33:43;-20807.34;;;-144.41;100.00
41684;BME280;27369;52.030;4.586;2023-02-28T01:36:18;-20807.34;;;-144.41;100.00
41684;BME280;27369;52.030;4.586;2023-02-28T01:38:44;-20807.34;;;-144.41;100.00
41684;BME280;27369;52.030;4.586;2023-02-28T01:41:13;-20807.34;;;-144.41;100.00
41684;BME280;27369;52.030;4.586;2023-02-28T01:46:08;-20807.34;;;-144.41;100.00
41684;BME280;27369;52.030;4.586;2023-02-28T01:48:34;-20807.34;;;-144.41;100.00
41684;BME280;27369;52.030;4.586;2023-02-28T01:51:03;-20807.34;;;-144.41;100.00
41684;BME280;27369;52.030;4.586;2023-02-28T01:53:32;-20807.34;;;-144.41;100.00
41684;BME280;27369;52.030;4.586;2023-02-28T01:55:58;-20807.34;;;-144.41;100.00
41684;BME280;27369;52.030;4.586;2023-02-28T01:58:24;-20807.34;;;-144.41;100.00
41684;BME280;27369;52.030;4.586;2023-02-28T02:00:49;-20807.34;;;-144.41;100.00
41684;BME280;27369;52.030;4.586;2023-02-28T02:03:16;-20807.34;;;-144.41;100.00
41684;BME280;27369;52.030;4.586;2023-02-28T02:05:46;-20807.34;;;-144.41;100.00
41684;BME280;27369;52.030;4.586;2023-02-28T02:08:13;-20807.34;;;-144.41;100.00
41684;BME280;27369;52.030;4.586;2023-02-28T02:10:54;-20807.34;;;-144.41;100.00
41684;BME280;27369;52.030;4.586;2023-02-28T02:19:02;-20807.34;;;-144.41;100.00
41684;BME280;27369;52.030;4.586;2023-02-28T02:37:03;-20807.34;;;-144.41;100.00
41684;BME280;27369;52.030;4.586;2023-02-28T02:42:21;-20807.34;;;-144.41;100.00
41684;BME280;27369;52.030;4.586;2023-02-28T02:44:51;-20807.34;;;-144.41;100.00
41684;BME280;27369;52.030;4.586;2023-02-28T02:47:19;-20807.34;;;-144.41;100.00
41684;BME280;27369;52.030;4.586;2023-02-28T02:49:47;-20807.34;;;-144.41;100.00
41684;BME280;27369;52.030;4.586;2023-02-28T02:52:14;-20807.34;;;-144.41;100.00
41684;BME280;27369;52.030;4.586;2023-02-28T02:54:43;-20807.34;;;-144.41;100.00
41684;BME280;27369;52.030;4.586;2023-02-28T02:57:31;-20807.34;;;-144.41;100.00
41684;BME280;27369;52.030;4.586;2023-02-28T02:59:55;-20807.34;;;-144.41;100.00
41684;BME280;27369;52.030;4.586;2023-02-28T03:02:21;-20807.34;;;-144.41;100.00
41684;BME280;27369;52.030;4.586;2023-02-28T03:04:51;-20807.34;;;-144.41;100.00
41684;BME280;27369;52.030;4.586;2023-02-28T03:07:17;-20807.34;;;-144.41;100.00
41684;BME280;27369;52.030;4.586;2023-02-28T03:09:52;-20807.34;;;-144.41;100.00
41684;BME280;27369;52.030;4.586;2023-02-28T03:12:18;-20807.34;;;-144.41;100.00
41684;BME280;27369;52.030;4.586;2023-02-28T03:14:47;-20807.34;;;-144.41;100.00
41684;BME280;27369;52.030;4.586;2023-02-28T03:19:54;-20807.34;;;-144.41;100.00
41684;BME280;27369;52.030;4.586;2023-02-28T03:22:37;-20807.34;;;-144.41;100.00
41684;BME280;27369;52.030;4.586;2023-02-28T03:25:18;-20807.34;;;-144.41;100.00
41684;BME280;27369;52.030;4.586;2023-02-28T03:32:59;-20807.34;;;-144.41;100.00
41684;BME280;27369;52.030;4.586;2023-02-28T03:35:27;-20807.34;;;-144.41;100.00
41684;BME280;27369;52.030;4.586;2023-02-28T03:38:09;-20807.34;;;-144.41;100.00
41684;BME280;27369;52.030;4.586;2023-02-28T03:40:39;-20807.34;;;-144.41;100.00
41684;BME280;27369;52.030;4.586;2023-02-28T03:43:12;-20807.34;;;-144.41;100.00
41684;BME280;27369;52.030;4.586;2023-02-28T03:45:39;-20807.34;;;-144.41;100.00
41684;BME280;27369;52.030;4.586;2023-02-28T03:48:08;-20807.34;;;-144.41;100.00
41684;BME280;27369;52.030;4.586;2023-02-28T03:53:03;-20807.34;;;-144.41;100.00
41684;BME280;27369;52.030;4.586;2023-02-28T03:55:32;-20807.34;;;-144.41;100.00
41684;BME280;27369;52.030;4.586;2023-02-28T03:58:10;-20807.34;;;-144.41;100.00
41684;BME280;27369;52.030;4.586;2023-02-28T04:00:40;-20807.34;;;-144.41;100.00
41684;BME280;27369;52.030;4.586;2023-02-28T04:03:08;-20807.34;;;-144.41;100.00
41684;BME280;27369;52.030;4.586;2023-02-28T04:05:34;-20807.34;;;-144.41;100.00
41684;BME280;27369;52.030;4.586;2023-02-28T04:08:11;-20807.34;;;-144.41;100.00
41684;BME280;27369;52.030;4.586;2023-02-28T04:10:36;-20807.34;;;-144.41;100.00
41684;BME280;27369;52.030;4.586;2023-02-28T04:13:02;-20807.34;;;-144.41;100.00
41684;BME280;27369;52.030;4.586;2023-02-28T04:15:27;-20807.34;;;-144.41;100.00
41684;BME280;27369;52.030;4.586;2023-02-28T04:17:53;-20807.34;;;-144.41;100.00
41684;BME280;27369;52.030;4.586;2023-02-28T04:20:18;-20807.34;;;-144.41;100.00
41684;BME280;27369;52.030;4.586;2023-02-28T04:22:43;-20807.34;;;-144.41;100.00
41684;BME280;27369;52.030;4.586;2023-02-28T04:25:09;-20807.34;;;-144.41;100.00
41684;BME280;27369;52.030;4.586;2023-02-28T04:27:34;-20807.34;;;-144.41;100.00
41684;BME280;27369;52.030;4.586;2023-02-28T04:29:59;-20807.34;;;-144.41;100.00
41684;BME280;27369;52.030;4.586;2023-02-28T04:32:25;-20807.34;;;-144.41;100.00
41684;BME280;27369;52.030;4.586;2023-02-28T04:34:50;-20807.34;;;-144.41;100.00
41684;BME280;27369;52.030;4.586;2023-02-28T04:37:15;-20807.34;;;-144.41;100.00
41684;BME280;27369;52.030;4.586;2023-02-28T04:39:41;-20807.34;;;-144.41;100.00
41684;BME280;27369;52.030;4.586;2023-02-28T04:42:07;-20807.34;;;-144.41;100.00
41684;BME280;27369;52.030;4.586;2023-02-28T04:44:32;-20807.34;;;-144.41;100.00
41684;BME280;27369;52.030;4.586;2023-02-28T04:46:57;-20807.34;;;-144.41;100.00
41684;BME280;27369;52.030;4.586;2023-02-28T04:49:23;-20807.34;;;-144.41;100.00
41684;BME280;27369;52.030;4.586;2023-02-28T04:51:48;-20807.34;;;-144.41;100.00
41684;BME280;27369;52.030;4.586;2023-02-28T04:54:14;-20807.34;;;-144.41;100.00
41684;BME280;27369;52.030;4.586;2023-02-28T04:56:41;-20807.34;;;-144.41;100.00
41684;BME280;27369;52.030;4.586;2023-02-28T04:59:06;-20807.34;;;-144.41;100.00
41684;BME280;27369;52.030;4.586;2023-02-28T05:01:32;-20807.34;;;-144.41;100.00
41684;BME280;27369;52.030;4.586;2023-02-28T05:03:59;-20807.34;;;-144.41;100.00
41684;BME280;27369;52.030;4.586;2023-02-28T05:06:25;-20807.34;;;-144.41;100.00
41684;BME280;27369;52.030;4.586;2023-02-28T05:08:51;-20807.34;;;-144.41;100.00
41684;BME280;27369;52.030;4.586;2023-02-28T05:11:20;-20807.34;;;-144.41;100.00
41684;BME280;27369;52.030;4.586;2023-02-28T05:13:46;-20807.34;;;-144.41;100.00
41684;BME280;27369;52.030;4.586;2023-02-28T05:16:12;-20807.34;;;-144.41;100.00
41684;BME280;27369;52.030;4.586;2023-02-28T05:18:37;-20807.34;;;-144.41;100.00
41684;BME280;27369;52.030;4.586;2023-02-28T05:21:03;-20807.34;;;-144.41;100.00
41684;BME280;27369;52.030;4.586;2023-02-28T05:23:28;-20807.34;;;-144.41;100.00
41684;BME280;27369;52.030;4.586;2023-02-28T05:25:54;-20807.34;;;-144.41;100.00
41684;BME280;27369;52.030;4.586;2023-02-28T05:28:19;-20807.34;;;-144.41;100.00
41684;BME280;27369;52.030;4.586;2023-02-28T05:30:44;-20807.34;;;-144.41;100.00
41684;BME280;27369;52.030;4.586;2023-02-28T05:33:10;-20807.34;;;-144.41;100.00
41684;BME280;27369;52.030;4.586;2023-02-28T05:35:37;-20807.34;;;-144.41;100.00
41684;BME280;27369;52.030;4.586;2023-02-28T05:38:02;-20807.34;;;-144.41;100.00
41684;BME280;27369;52.030;4.586;2023-02-28T05:40:28;-20807.34;;;-144.41;100.00
41684;BME280;27369;52.030;4.586;2023-02-28T05:42:53;-20807.34;;;-144.41;100.00
41684;BME280;27369;52.030;4.586;2023-02-28T05:45:18;-20807.34;;;-144.41;100.00
41684;BME280;27369;52.030;4.586;2023-02-28T05:47:43;-20807.34;;;-144.41;100.00
41684;BME280;27369;52.030;4.586;2023-02-28T05:50:09;-20807.34;;;-144.41;100.00
41684;BME280;27369;52.030;4.586;2023-02-28T05:52:35;-20807.34;;;-144.41;100.00
41684;BME280;27369;52.030;4.586;2023-02-28T05:55:00;-20807.34;;;-144.41;100.00
41684;BME280;27369;52.030;4.586;2023-02-28T05:57:26;-20807.34;;;-144.41;100.00
41684;BME280;27369;52.030;4.586;2023-02-28T05:59:51;-20807.34;;;-144.41;100.00
41684;BME280;27369;52.030;4.586;2023-02-28T06:02:17;-20807.34;;;-144.41;100.00
41684;BME280;27369;52.030;4.586;2023-02-28T06:04:42;-20807.34;;;-144.41;100.00
41684;BME280;27369;52.030;4.586;2023-02-28T06:07:08;-20807.34;;;-144.41;100.00
41684;BME280;27369;52.030;4.586;2023-02-28T06:09:34;-20807.34;;;-144.41;100.00
41684;BME280;27369;52.030;4.586;2023-02-28T06:11:59;-20807.34;;;-144.41;100.00
41684;BME280;27369;52.030;4.586;2023-02-28T06:14:25;-20807.34;;;-144.41;100.00
41684;BME280;27369;52.030;4.586;2023-02-28T06:16:50;-20807.34;;;-144.41;100.00
41684;BME280;27369;52.030;4.586;2023-02-28T06:19:16;-20807.34;;;-144.41;100.00
41684;BME280;27369;52.030;4.586;2023-02-28T06:21:42;-20807.34;;;-144.41;100.00
41684;BME280;27369;52.030;4.586;2023-02-28T06:24:07;-20807.34;;;-144.41;100.00
41684;BME280;27369;52.030;4.586;2023-02-28T06:26:33;-20807.34;;;-144.41;100.00
41684;BME280;27369;52.030;4.586;2023-02-28T06:28:58;-20807.34;;;-144.41;100.00
41684;BME280;27369;52.030;4.586;2023-02-28T06:31:23;-20807.34;;;-144.41;100.00
41684;BME280;27369;52.030;4.586;2023-02-28T06:33:50;-20807.34;;;-144.41;100.00
41684;BME280;27369;52.030;4.586;2023-02-28T06:36:16;-20807.34;;;-144.41;100.00
41684;BME280;27369;52.030;4.586;2023-02-28T06:38:41;-20807.34;;;-144.41;100.00
41684;BME280;27369;52.030;4.586;2023-02-28T06:41:07;-20807.34;;;-144.41;100.00
41684;BME280;27369;52.030;4.586;2023-02-28T06:43:34;-20807.34;;;-144.41;100.00
41684;BME280;27369;52.030;4.586;2023-02-28T06:46:00;-20807.34;;;-144.41;100.00
41684;BME280;27369;52.030;4.586;2023-02-28T06:48:26;-20807.34;;;-144.41;100.00
41684;BME280;27369;52.030;4.586;2023-02-28T06:50:51;-20807.34;;;-144.41;100.00
41684;BME280;27369;52.030;4.586;2023-02-28T06:53:17;-20807.34;;;-144.41;100.00
41684;BME280;27369;52.030;4.586;2023-02-28T06:55:42;-20807.34;;;-144.41;100.00
41684;BME280;27369;52.030;4.586;2023-02-28T06:58:07;-20807.34;;;-144.41;100.00
41684;BME280;27369;52.030;4.586;2023-02-28T07:00:42;-20807.34;;;-144.41;100.00
41684;BME280;27369;52.030;4.586;2023-02-28T07:03:08;-20807.34;;;-144.41;100.00
41684;BME280;27369;52.030;4.586;2023-02-28T07:05:34;-20807.34;;;-144.41;100.00
41684;BME280;27369;52.030;4.586;2023-02-28T07:07:59;-20807.34;;;-144.41;100.00
41684;BME280;27369;52.030;4.586;2023-02-28T07:10:25;-20807.34;;;-144.41;100.00
41684;BME280;27369;52.030;4.586;2023-02-28T07:12:50;-20807.34;;;-144.41;100.00
41684;BME280;27369;52.030;4.586;2023-02-28T07:15:16;-20807.34;;;-144.41;100.00
41684;BME280;27369;52.030;4.586;2023-02-28T07:17:41;-20807.34;;;-144.41;100.00
41684;BME280;27369;52.030;4.586;2023-02-28T07:20:07;-20807.34;;;-144.41;100.00
41684;BME280;27369;52.030;4.586;2023-02-28T07:22:32;-20807.34;;;-144.41;100.00
41684;BME280;27369;52.030;4.586;2023-02-28T07:24:57;-20807.34;;;-144.41;100.00
41684;BME280;27369;52.030;4.586;2023-02-28T07:27:23;-20807.34;;;-144.41;100.00
41684;BME280;27369;52.030;4.586;2023-02-28T07:29:51;-20807.34;;;-144.41;100.00
41684;BME280;27369;52.030;4.586;2023-02-28T07:32:17;-20807.34;;;-144.41;100.00
41684;BME280;27369;52.030;4.586;2023-02-28T07:34:43;-20807.34;;;-144.41;100.00
41684;BME280;27369;52.030;4.586;2023-02-28T07:37:09;-20807.34;;;-144.41;100.00
41684;BME280;27369;52.030;4.586;2023-02-28T07:39:34;-20807.34;;;-144.41;100.00
41684;BME280;27369;52.030;4.586;2023-02-28T07:42:00;-20807.34;;;-144.41;100.00
41684;BME280;27369;52.030;4.586;2023-02-28T07:44:26;-20807.34;;;-144.41;100.00
41684;BME280;27369;52.030;4.586;2023-02-28T07:46:52;-20807.34;;;-144.41;100.00
41684;BME280;27369;52.030;4.586;2023-02-28T07:49:17;-20807.34;;;-144.41;100.00
41684;BME280;27369;52.030;4.586;2023-02-28T07:51:43;-20807.34;;;-144.41;100.00
41684;BME280;27369;52.030;4.586;2023-02-28T07:54:08;-20807.34;;;-144.41;100.00
41684;BME280;27369;52.030;4.586;2023-02-28T07:56:33;-20807.34;;;-144.41;100.00
41684;BME280;27369;52.030;4.586;2023-02-28T07:58:58;-20807.34;;;-144.41;100.00
41684;BME280;27369;52.030;4.586;2023-02-28T08:01:24;-20807.34;;;-144.41;100.00
41684;BME280;27369;52.030;4.586;2023-02-28T08:03:49;-20807.34;;;-144.41;100.00
41684;BME280;27369;52.030;4.586;2023-02-28T08:06:16;-20807.34;;;-144.41;100.00
41684;BME280;27369;52.030;4.586;2023-02-28T08:08:42;-20807.34;;;-144.41;100.00
41684;BME280;27369;52.030;4.586;2023-02-28T08:11:09;-20807.34;;;-144.41;100.00
41684;BME280;27369;52.030;4.586;2023-02-28T08:13:34;-20807.34;;;-144.41;100.00
41684;BME280;27369;52.030;4.586;2023-02-28T08:16:00;-20807.34;;;-144.41;100.00
41684;BME280;27369;52.030;4.586;2023-02-28T08:18:26;-20807.34;;;-144.41;100.00
41684;BME280;27369;52.030;4.586;2023-02-28T08:20:51;-20807.34;;;-144.41;100.00
41684;BME280;27369;52.030;4.586;2023-02-28T08:23:16;-20807.34;;;-144.41;100.00
41684;BME280;27369;52.030;4.586;2023-02-28T08:25:41;-20807.34;;;-144.41;100.00
41684;BME280;27369;52.030;4.586;2023-02-28T08:28:07;-20807.34;;;-144.41;100.00
41684;BME280;27369;52.030;4.586;2023-02-28T08:30:32;-20807.34;;;-144.41;100.00
41684;BME280;27369;52.030;4.586;2023-02-28T08:32:57;-20807.34;;;-144.41;100.00
41684;BME280;27369;52.030;4.586;2023-02-28T08:35:23;-20807.34;;;-144.41;100.00
41684;BME280;27369;52.030;4.586;2023-02-28T08:37:48;-20807.34;;;-144.41;100.00
41684;BME280;27369;52.030;4.586;2023-02-28T08:40:14;-20807.34;;;-144.41;100.00
41684;BME280;27369;52.030;4.586;2023-02-28T08:42:43;-20807.34;;;-144.41;100.00
41684;BME280;27369;52.030;4.586;2023-02-28T08:45:09;-20807.34;;;-144.41;100.00
41684;BME280;27369;52.030;4.586;2023-02-28T08:47:34;-20807.34;;;-144.41;100.00
41684;BME280;27369;52.030;4.586;2023-02-28T08:50:00;-20807.34;;;-144.41;100.00
41684;BME280;27369;52.030;4.586;2023-02-28T08:52:25;-20807.34;;;-144.41;100.00
41684;BME280;27369;52.030;4.586;2023-02-28T08:54:50;-20807.34;;;-144.41;100.00
41684;BME280;27369;52.030;4.586;2023-02-28T08:57:15;-20807.34;;;-144.41;100.00
41684;BME280;27369;52.030;4.586;2023-02-28T08:59:41;-20807.34;;;-144.41;100.00
41684;BME280;27369;52.030;4.586;2023-02-28T09:02:07;-20807.34;;;-144.41;100.00
41684;BME280;27369;52.030;4.586;2023-02-28T09:04:33;-20807.34;;;-144.41;100.00
41684;BME280;27369;52.030;4.586;2023-02-28T09:06:59;-20807.34;;;-144.41;100.00
41684;BME280;27369;52.030;4.586;2023-02-28T09:09:24;-20807.34;;;-144.41;100.00
41684;BME280;27369;52.030;4.586;2023-02-28T09:11:49;-20807.34;;;-144.41;100.00
41684;BME280;27369;52.030;4.586;2023-02-28T09:14:14;-20807.34;;;-144.41;100.00
41684;BME280;27369;52.030;4.586;2023-02-28T09:16:42;-20807.34;;;-144.41;100.00
41684;BME280;27369;52.030;4.586;2023-02-28T09:19:10;-20807.34;;;-144.41;100.00
41684;BME280;27369;52.030;4.586;2023-02-28T09:21:35;-20807.34;;;-144.41;100.00
41684;BME280;27369;52.030;4.586;2023-02-28T09:24:01;-20807.34;;;-144.41;100.00
41684;BME280;27369;52.030;4.586;2023-02-28T09:26:26;-20807.34;;;-144.41;100.00
41684;BME280;27369;52.030;4.586;2023-02-28T09:28:52;-20807.34;;;-144.41;100.00
41684;BME280;27369;52.030;4.586;2023-02-28T09:31:19;-20807.34;;;-144.41;100.00
41684;BME280;27369;52.030;4.586;2023-02-28T09:33:48;-20807.34;;;-144.41;100.00
41684;BME280;27369;52.030;4.586;2023-02-28T09:36:14;-20807.34;;;-144.41;100.00
41684;BME280;27369;52.030;4.586;2023-02-28T09:38:39;-20807.34;;;-144.41;100.00
41684;BME280;27369;52.030;4.586;2023-02-28T09:41:10;-20807.34;;;-144.41;100.00
41684;BME280;27369;52.030;4.586;2023-02-28T09:43:38;-20807.34;;;-144.41;100.00
41684;BME280;27369;52.030;4.586;2023-02-28T09:48:32;-20807.34;;;-144.41;100.00
41684;BME280;27369;52.030;4.586;2023-02-28T09:51:04;-20807.34;;;-144.41;100.00
41684;BME280;27369;52.030;4.586;2023-02-28T09:53:35;-20807.34;;;-144.41;100.00
41684;BME280;27369;52.030;4.586;2023-02-28T09:56:11;-20807.34;;;-144.41;100.00
41684;BME280;27369;52.030;4.586;2023-02-28T09:58:42;-20807.34;;;-144.41;100.00
41684;BME280;27369;52.030;4.586;2023-02-28T10:03:56;-20807.34;;;-144.41;100.00
41684;BME280;27369;52.030;4.586;2023-02-28T10:06:22;-20807.34;;;-144.41;100.00
41684;BME280;27369;52.030;4.586;2023-02-28T10:09:08;-20807.34;;;-144.41;100.00
41684;BME280;27369;52.030;4.586;2023-02-28T10:11:35;-20807.34;;;-144.41;100.00
41684;BME280;27369;52.030;4.586;2023-02-28T10:14:04;-20807.34;;;-144.41;100.00
41684;BME280;27369;52.030;4.586;2023-02-28T10:16:34;-20807.34;;;-144.41;100.00
41684;BME280;27369;52.030;4.586;2023-02-28T10:21:48;-20807.34;;;-144.41;100.00
41684;BME280;27369;52.030;4.586;2023-02-28T10:24:26;-20807.34;;;-144.41;100.00
41684;BME280;27369;52.030;4.586;2023-02-28T10:26:52;-20807.34;;;-144.41;100.00
41684;BME280;27369;52.030;4.586;2023-02-28T10:29:20;-20807.34;;;-144.41;100.00
41684;BME280;27369;52.030;4.586;2023-02-28T10:31:46;-20807.34;;;-144.41;100.00
41684;BME280;27369;52.030;4.586;2023-02-28T10:34:12;-20807.34;;;-144.41;100.00
41684;BME280;27369;52.030;4.586;2023-02-28T10:36:37;-20807.34;;;-144.41;100.00
41684;BME280;27369;52.030;4.586;2023-02-28T10:39:33;-20807.34;;;-144.41;100.00
41684;BME280;27369;52.030;4.586;2023-02-28T10:41:48;-20807.34;;;-144.41;100.00
41684;BME280;27369;52.030;4.586;2023-02-28T10:44:23;-20807.34;;;-144.41;100.00
41684;BME280;27369;52.030;4.586;2023-02-28T10:46:48;-20807.34;;;-144.41;100.00
41684;BME280;27369;52.030;4.586;2023-02-28T10:49:20;-20807.34;;;-144.41;100.00
41684;BME280;27369;52.030;4.586;2023-02-28T10:51:52;-20807.34;;;-144.41;100.00
41684;BME280;27369;52.030;4.586;2023-02-28T10:54:19;-20807.34;;;-144.41;100.00
41684;BME280;27369;52.030;4.586;2023-02-28T10:57:04;-20807.34;;;-144.41;100.00
41684;BME280;27369;52.030;4.586;2023-02-28T10:59:30;-20807.34;;;-144.41;100.00
41684;BME280;27369;52.030;4.586;2023-02-28T11:01:56;-20807.34;;;-144.41;100.00
41684;BME280;27369;52.030;4.586;2023-02-28T11:07:06;-20059.75;;;-144.41;100.00
41684;BME280;27369;52.030;4.586;2023-02-28T11:09:36;-20805.88;;;-144.41;100.00
41684;BME280;27369;52.030;4.586;2023-02-28T11:12:04;-20059.75;;;-144.41;100.00
41684;BME280;27369;52.030;4.586;2023-02-28T11:14:31;-15579.84;;;-144.41;100.00
41684;BME280;27369;52.030;4.586;2023-02-28T11:17:00;-11842.56;;;-144.41;100.00
41684;BME280;27369;52.030;4.586;2023-02-28T11:19:34;-7602.59;;;-144.41;100.00
41684;BME280;27369;52.030;4.586;2023-02-28T11:22:03;-2108.59;;;-144.41;100.00
41684;BME280;27369;52.030;4.586;2023-02-28T11:24:30;2892.78;;;-144.41;100.00
41684;BME280;27369;52.030;4.586;2023-02-28T11:26:58;8401.78;;;-144.41;100.00
41684;BME280;27369;52.030;4.586;2023-02-28T11:29:25;11410.00;;;-144.41;100.00
41684;BME280;27369;52.030;4.586;2023-02-28T11:34:35;23214.66;;;-144.41;100.00
41684;BME280;27369;52.030;4.586;2023-02-28T11:37:01;28752.56;;;-144.41;100.00
41684;BME280;27369;52.030;4.586;2023-02-28T11:39:30;35055.16;;;-144.41;100.00
41684;BME280;27369;52.030;4.586;2023-02-28T11:42:03;20951.41;;;-144.41;100.00
41684;BME280;27369;52.030;4.586;2023-02-28T11:46:58;32532.91;;;-144.41;100.00
41684;BME280;27369;52.030;4.586;2023-02-28T11:49:34;43643.00;;;-144.41;100.00
41684;BME280;27369;52.030;4.586;2023-02-28T11:57:19;80129.19;;;-144.41;100.00
41684;BME280;27369;52.030;4.586;2023-02-28T12:02:51;85048.59;;;-144.41;100.00
41684;BME280;27369;52.030;4.586;2023-02-28T12:05:23;85457.81;;;-144.41;100.00
41684;BME280;27369;52.030;4.586;2023-02-28T12:08:00;85509.72;;;-144.41;100.00
41684;BME280;27369;52.030;4.586;2023-02-28T12:10:29;85465.81;;;-144.41;100.00
41684;BME280;27369;52.030;4.586;2023-02-28T12:18:09;85891.03;;;-144.41;100.00
41684;BME280;27369;52.030;4.586;2023-02-28T12:20:47;86060.75;;;-144.41;100.00
41684;BME280;27369;52.030;4.586;2023-02-28T12:25:55;86184.53;;;-144.41;100.00
41684;BME280;27369;52.030;4.586;2023-02-28T12:28:23;86172.56;;;-144.41;100.00
41684;BME280;27369;52.030;4.586;2023-02-28T12:30:58;86120.66;;;-144.41;100.00
41684;BME280;27369;52.030;4.586;2023-02-28T12:33:27;86028.81;;;-144.41;100.00
41684;BME280;27369;52.030;4.586;2023-02-28T12:35:56;86058.75;;;-144.41;100.00
41684;BME280;27369;52.030;4.586;2023-02-28T12:38:23;86038.78;;;-144.41;100.00
41684;BME280;27369;52.030;4.586;2023-02-28T12:40:52;85982.88;;;-144.41;100.00
41684;BME280;27369;52.030;4.586;2023-02-28T12:43:19;85940.97;;;-144.41;100.00
41684;BME280;27369;52.030;4.586;2023-02-28T12:45:53;85855.09;;;-144.41;100.00
41684;BME280;27369;52.030;4.586;2023-02-28T12:50:55;85823.16;;;-144.41;100.00
41684;BME280;27369;52.030;4.586;2023-02-28T12:58:51;85763.25;;;-144.41;100.00
41684;BME280;27369;52.030;4.586;2023-02-28T13:09:20;85631.50;;;-144.41;100.00
41684;BME280;27369;52.030;4.586;2023-02-28T13:11:49;85591.56;;;-144.41;100.00
41684;BME280;27369;52.030;4.586;2023-02-28T13:14:18;85595.56;;;-144.41;100.00
41684;BME280;27369;52.030;4.586;2023-02-28T13:17:01;85527.69;;;-144.41;100.00
41684;BME280;27369;52.030;4.586;2023-02-28T13:19:29;85489.75;;;-144.41;100.00
41684;BME280;27369;52.030;4.586;2023-02-28T13:21:55;85479.78;;;-144.41;100.00
41684;BME280;27369;52.030;4.586;2023-02-28T13:24:55;85475.78;;;-144.41;100.00
41684;BME280;27369;52.030;4.586;2023-02-28T13:29:41;85457.81;;;-144.41;100.00
41684;BME280;27369;52.030;4.586;2023-02-28T13:34:36;85413.91;;;-144.41;100.00
41684;BME280;27369;52.030;4.586;2023-02-28T13:42:32;85362.00;;;-144.41;100.00
41684;BME280;27369;52.030;4.586;2023-02-28T13:47:38;85326.06;;;-144.41;100.00
41684;BME280;27369;52.030;4.586;2023-02-28T14:00:37;85246.22;;;-144.41;100.00
41684;BME280;27369;52.030;4.586;2023-02-28T14:03:22;85220.25;;;-144.41;100.00
41684;BME280;27369;52.030;4.586;2023-02-28T14:06:09;85222.25;;;-144.41;100.00
41684;BME280;27369;52.030;4.586;2023-02-28T14:08:35;85242.22;;;-144.41;100.00
41684;BME280;27369;52.030;4.586;2023-02-28T14:11:05;85216.28;;;-144.41;100.00
41684;BME280;27369;52.030;4.586;2023-02-28T14:13:44;85168.38;;;-144.41;100.00